createdAt,value
2018-07-16T00:00:14.512Z,1.87
2018-07-16T00:02:42.620Z,1.80
2018-07-16T00:05:10.375Z,1.60
2018-07-16T00:07:38.090Z,1.40
2018-07-16T00:10:05.797Z,1.40
2018-07-16T00:12:33.481Z,1.73
2018-07-16T00:15:01.238Z,1.27
2018-07-16T00:17:28.884Z,1.50
2018-07-16T00:19:56.540Z,1.40
2018-07-16T00:22:24.201Z,1.17
2018-07-16T00:24:51.885Z,1.70
2018-07-16T00:27:19.568Z,1.60
2018-07-16T00:29:47.221Z,1.30
2018-07-16T00:32:14.846Z,1.40
2018-07-16T00:34:42.541Z,1.60
2018-07-16T00:37:10.237Z,1.47
2018-07-16T00:39:37.891Z,1.40
2018-07-16T00:42:05.668Z,1.50
2018-07-16T00:44:33.381Z,1.20
2018-07-16T00:47:01.032Z,1.30
2018-07-16T00:49:28.677Z,1.40
2018-07-16T00:51:56.315Z,1.20
2018-07-16T00:54:23.989Z,1.70
2018-07-16T00:56:51.650Z,1.23
2018-07-16T00:59:19.299Z,1.30
2018-07-16T01:01:46.971Z,1.50
2018-07-16T01:04:14.637Z,1.57
2018-07-16T01:06:42.287Z,1.50
2018-07-16T01:09:09.988Z,1.30
2018-07-16T01:11:37.663Z,1.47
2018-07-16T01:14:05.454Z,1.30
2018-07-16T01:16:33.141Z,1.27
2018-07-16T01:19:00.808Z,1.50
2018-07-16T01:21:28.507Z,0.90
2018-07-16T01:23:56.240Z,1.10
2018-07-16T01:26:23.873Z,1.47
2018-07-16T01:28:51.515Z,1.30
2018-07-16T01:31:19.152Z,1.30
2018-07-16T01:33:46.822Z,1.50
2018-07-16T01:36:14.501Z,1.13
2018-07-16T01:38:42.278Z,1.20
2018-07-16T01:41:09.984Z,1.30
2018-07-16T01:43:37.649Z,1.30
2018-07-16T01:46:05.307Z,1.17
2018-07-16T01:48:32.940Z,1.30
2018-07-16T01:51:00.648Z,1.10
2018-07-16T01:53:28.298Z,1.13
2018-07-16T01:55:55.949Z,0.90
2018-07-16T01:58:23.620Z,1.23
2018-07-16T02:00:57.146Z,1.20
2018-07-16T02:03:26.049Z,0.80
2018-07-16T02:05:53.773Z,1.13
2018-07-16T02:08:22.367Z,1.30
2018-07-16T02:10:50.033Z,1.20
2018-07-16T02:13:17.875Z,0.87
2018-07-16T02:15:45.545Z,1.20
2018-07-16T02:18:13.863Z,1.50
2018-07-16T02:20:41.813Z,1.10
2018-07-16T02:23:09.563Z,1.30
2018-07-16T02:25:37.372Z,1.40
2018-07-16T02:28:05.356Z,0.97
2018-07-16T02:30:32.947Z,1.40
2018-07-16T02:33:00.629Z,1.40
2018-07-16T02:35:28.310Z,1.30
2018-07-16T02:37:55.940Z,1.30
2018-07-16T02:40:23.601Z,1.60
2018-07-16T02:42:51.254Z,1.43
2018-07-16T02:45:18.888Z,1.30
2018-07-16T02:47:46.571Z,1.30
2018-07-16T02:50:14.205Z,1.60
2018-07-16T02:52:41.930Z,0.80
2018-07-16T02:55:09.684Z,1.30
2018-07-16T02:57:37.297Z,1.30
2018-07-16T03:00:05.085Z,1.23
2018-07-16T03:02:35.140Z,1.20
2018-07-16T03:05:03.347Z,1.30
2018-07-16T03:07:31.052Z,1.37
2018-07-16T03:09:58.961Z,1.20
2018-07-16T03:12:26.700Z,1.20
2018-07-16T03:14:54.363Z,1.30
2018-07-16T03:17:22.020Z,1.10
2018-07-16T03:19:49.726Z,1.10
2018-07-16T03:22:17.411Z,1.03
2018-07-16T03:24:45.031Z,1.20
2018-07-16T03:27:12.721Z,1.20
2018-07-16T03:29:40.346Z,1.40
2018-07-16T03:32:08.108Z,1.30
2018-07-16T03:34:35.813Z,1.40
2018-07-16T03:37:03.509Z,1.20
2018-07-16T03:39:31.260Z,1.20
2018-07-16T03:41:59.217Z,1.20
2018-07-16T03:44:26.862Z,1.20
2018-07-16T03:46:54.522Z,1.57
2018-07-16T03:49:22.190Z,0.87
2018-07-16T03:51:49.796Z,1.17
2018-07-16T03:54:17.447Z,1.20
2018-07-16T03:56:45.080Z,1.10
2018-07-16T03:59:12.759Z,1.40
2018-07-16T04:01:40.591Z,0.90
2018-07-16T04:04:08.184Z,1.10
2018-07-16T04:06:35.851Z,0.90
2018-07-16T04:09:04.397Z,1.00
2018-07-16T04:11:32.052Z,0.90
2018-07-16T04:13:59.755Z,0.97
2018-07-16T04:16:27.524Z,0.80
2018-07-16T04:18:55.194Z,0.90
2018-07-16T04:21:22.837Z,0.97
2018-07-16T04:23:50.513Z,1.20
2018-07-16T04:26:18.272Z,0.90
2018-07-16T04:28:45.920Z,0.77
2018-07-16T04:31:13.565Z,1.00
2018-07-16T04:33:41.241Z,0.90
2018-07-16T04:36:08.878Z,1.10
2018-07-16T04:38:36.584Z,0.93
2018-07-16T04:41:04.252Z,1.07
2018-07-16T04:43:31.984Z,0.97
2018-07-16T04:45:59.637Z,0.67
2018-07-16T04:48:27.378Z,0.73
2018-07-16T04:50:55.104Z,0.70
2018-07-16T04:53:22.802Z,0.90
2018-07-16T04:55:50.528Z,0.70
2018-07-16T04:58:18.181Z,0.75
2018-07-16T05:00:45.886Z,1.02
2018-07-16T05:03:13.617Z,1.00
2018-07-16T05:05:41.371Z,0.82
2018-07-16T05:08:09.064Z,0.80
2018-07-16T05:10:36.780Z,0.80
2018-07-16T05:13:04.458Z,0.90
2018-07-16T05:15:32.135Z,0.70
2018-07-16T05:17:59.781Z,0.60
2018-07-16T05:20:27.491Z,0.68
2018-07-16T05:22:55.167Z,0.82
2018-07-16T05:25:22.859Z,0.60
2018-07-16T05:27:50.525Z,0.60
2018-07-16T05:30:18.166Z,0.70
2018-07-16T05:32:45.937Z,0.60
2018-07-16T05:35:13.566Z,0.50
2018-07-16T05:37:41.249Z,0.57
2018-07-16T05:40:08.990Z,0.60
2018-07-16T05:42:36.714Z,0.42
2018-07-16T05:45:04.477Z,0.53
2018-07-16T05:47:32.164Z,0.70
2018-07-16T05:49:59.907Z,0.40
2018-07-16T05:52:27.660Z,0.55
2018-07-16T05:54:55.312Z,0.50
2018-07-16T05:57:23.001Z,0.50
2018-07-16T05:59:50.748Z,0.50
2018-07-16T06:02:18.470Z,0.53
2018-07-16T06:04:46.148Z,0.50
2018-07-16T06:07:13.845Z,0.40
2018-07-16T06:09:41.533Z,0.60
2018-07-16T06:12:09.162Z,0.50
2018-07-16T06:14:36.988Z,0.42
2018-07-16T06:17:04.718Z,0.40
2018-07-16T06:19:32.434Z,0.60
2018-07-16T06:22:00.144Z,0.40
2018-07-16T06:24:27.873Z,0.50
2018-07-16T06:26:55.561Z,0.47
2018-07-16T06:29:23.232Z,0.60
2018-07-16T06:31:51.021Z,0.40
2018-07-16T06:34:18.770Z,0.40
2018-07-16T06:36:46.481Z,0.50
2018-07-16T06:39:14.180Z,0.47
2018-07-16T06:41:41.891Z,0.50
2018-07-16T06:44:09.931Z,0.42
2018-07-16T06:46:37.662Z,0.47
2018-07-16T06:49:05.363Z,0.40
2018-07-16T06:51:33.197Z,0.40
2018-07-16T06:54:01.085Z,0.50
2018-07-16T06:56:28.758Z,0.70
2018-07-16T06:58:56.468Z,0.60
2018-07-16T07:01:24.140Z,0.60
2018-07-16T07:03:51.797Z,0.60
2018-07-16T07:06:19.540Z,0.60
2018-07-16T07:08:47.199Z,0.62
2018-07-16T07:11:14.874Z,0.70
2018-07-16T07:13:42.535Z,0.90
2018-07-16T07:16:10.257Z,0.88
2018-07-16T07:18:37.911Z,0.60
2018-07-16T07:21:05.626Z,0.78
2018-07-16T07:23:34.515Z,0.70
2018-07-16T07:26:02.174Z,0.90
2018-07-16T07:28:29.878Z,0.68
2018-07-16T07:30:57.950Z,0.53
2018-07-16T07:33:25.693Z,0.70
2018-07-16T07:35:53.447Z,0.68
2018-07-16T07:38:21.228Z,0.70
2018-07-16T07:40:48.951Z,0.68
2018-07-16T07:43:16.663Z,0.60
2018-07-16T07:45:44.440Z,0.72
2018-07-16T07:48:12.166Z,0.53
2018-07-16T07:50:39.921Z,0.60
2018-07-16T07:53:07.647Z,0.60
2018-07-16T07:55:35.649Z,0.40
2018-07-16T07:58:03.465Z,0.60
2018-07-16T08:00:31.157Z,0.57
2018-07-16T08:02:58.879Z,0.60
2018-07-16T08:05:26.636Z,0.70
2018-07-16T08:07:54.310Z,0.70
2018-07-16T08:10:21.996Z,0.70
2018-07-16T08:12:49.690Z,0.70
2018-07-16T08:15:17.609Z,0.80
2018-07-16T08:17:45.369Z,0.80
2018-07-16T08:20:13.138Z,0.80
2018-07-16T08:22:40.883Z,0.70
2018-07-16T08:25:08.574Z,0.68
2018-07-16T08:27:36.345Z,0.75
2018-07-16T08:30:05.074Z,0.60
2018-07-16T08:32:32.752Z,0.93
2018-07-16T08:35:00.438Z,0.78
2018-07-16T08:37:28.090Z,0.80
2018-07-16T08:39:55.790Z,0.80
2018-07-16T08:42:23.547Z,0.68
2018-07-16T08:44:51.282Z,0.60
2018-07-16T08:47:18.952Z,0.75
2018-07-16T08:49:46.598Z,0.80
2018-07-16T08:52:14.290Z,1.10
2018-07-16T08:54:42.115Z,1.02
2018-07-16T08:57:09.806Z,0.80
2018-07-16T08:59:37.497Z,1.00
2018-07-16T09:02:05.284Z,0.93
2018-07-16T09:04:33.001Z,1.12
2018-07-16T09:07:00.751Z,0.70
2018-07-16T09:09:28.568Z,0.82
2018-07-16T09:11:56.256Z,0.80
2018-07-16T09:14:23.984Z,0.90
2018-07-16T09:16:51.722Z,0.78
2018-07-16T09:19:19.402Z,0.82
2018-07-16T09:21:47.044Z,0.80
2018-07-16T09:24:14.686Z,0.80
2018-07-16T09:26:42.444Z,0.80
2018-07-16T09:29:10.219Z,0.72
2018-07-16T09:31:37.890Z,0.95
2018-07-16T09:34:05.593Z,0.85
2018-07-16T09:36:33.301Z,0.90
2018-07-16T09:39:01.178Z,0.80
2018-07-16T09:41:28.840Z,0.85
2018-07-16T09:43:56.561Z,1.07
2018-07-16T09:46:24.245Z,0.80
2018-07-16T09:48:51.938Z,1.00
2018-07-16T09:51:19.645Z,0.90
2018-07-16T09:53:47.319Z,1.00
2018-07-16T09:56:15.026Z,0.85
2018-07-16T09:58:42.683Z,0.93
2018-07-16T10:01:15.895Z,0.85
2018-07-16T10:03:43.561Z,0.70
2018-07-16T10:06:11.286Z,1.15
2018-07-16T10:08:38.925Z,0.95
2018-07-16T10:11:06.672Z,0.60
2018-07-16T10:13:34.346Z,0.80
2018-07-16T10:16:02.003Z,0.70
2018-07-16T10:18:29.626Z,0.75
2018-07-16T10:20:57.373Z,0.90
2018-07-16T10:23:25.024Z,0.82
2018-07-16T10:25:52.808Z,0.90
2018-07-16T10:28:20.497Z,0.75
2018-07-16T10:30:48.181Z,0.88
2018-07-16T10:33:15.838Z,0.93
2018-07-16T10:35:43.495Z,1.00
2018-07-16T10:38:11.153Z,0.80
2018-07-16T10:40:38.799Z,0.70
2018-07-16T10:43:06.565Z,0.68
2018-07-16T10:45:34.320Z,0.90
2018-07-16T10:48:02.007Z,0.70
2018-07-16T10:50:29.675Z,0.90
2018-07-16T10:52:57.443Z,1.10
2018-07-16T10:55:25.084Z,0.95
2018-07-16T10:57:52.735Z,0.90
2018-07-16T11:00:20.545Z,0.93
2018-07-16T11:02:48.348Z,1.00
2018-07-16T11:05:16.034Z,1.12
2018-07-16T11:07:43.716Z,0.90
2018-07-16T11:10:11.461Z,1.00
2018-07-16T11:12:39.146Z,0.70
2018-07-16T11:15:06.897Z,0.80
2018-07-16T11:17:34.620Z,0.82
2018-07-16T11:20:02.304Z,0.80
2018-07-16T11:22:29.963Z,0.80
2018-07-16T11:24:57.605Z,0.70
2018-07-16T11:27:25.323Z,0.80
2018-07-16T11:29:53.038Z,0.70
2018-07-16T11:32:20.704Z,0.82
2018-07-16T11:34:48.372Z,0.70
2018-07-16T11:37:16.073Z,0.85
2018-07-16T11:39:43.916Z,1.00
2018-07-16T11:42:11.560Z,0.82
2018-07-16T11:44:39.299Z,0.93
2018-07-16T11:47:07.419Z,0.70
2018-07-16T11:49:35.083Z,1.12
2018-07-16T11:52:02.782Z,0.75
2018-07-16T11:54:30.913Z,1.02
2018-07-16T11:56:58.596Z,0.80
2018-07-16T11:59:26.412Z,0.90
2018-07-16T12:01:54.014Z,1.05
2018-07-16T12:04:21.629Z,0.78
2018-07-16T12:06:49.305Z,0.70
2018-07-16T12:09:17.055Z,0.95
2018-07-16T12:11:44.832Z,0.80
2018-07-16T12:14:12.505Z,0.75
2018-07-16T12:16:40.196Z,0.70
2018-07-16T12:19:08.031Z,0.70
2018-07-16T12:21:35.694Z,0.70
2018-07-16T12:24:03.360Z,0.70
2018-07-16T12:26:31.142Z,0.72
2018-07-16T12:28:59.004Z,0.80
2018-07-16T12:31:26.902Z,0.70
2018-07-16T12:33:54.752Z,0.88
2018-07-16T12:36:22.486Z,1.00
2018-07-16T12:38:50.462Z,0.90
2018-07-16T12:41:18.261Z,0.70
2018-07-16T12:43:45.992Z,0.68
2018-07-16T12:46:13.779Z,0.60
2018-07-16T12:48:42.373Z,0.65
2018-07-16T12:51:10.218Z,0.80
2018-07-16T12:53:37.999Z,0.85
2018-07-16T12:56:05.774Z,0.80
2018-07-16T12:58:33.584Z,0.70
2018-07-16T13:01:01.325Z,0.75
2018-07-16T13:03:29.095Z,0.60
2018-07-16T13:05:57.124Z,0.70
2018-07-16T13:08:24.928Z,0.70
2018-07-16T13:10:52.656Z,0.90
2018-07-16T13:13:20.418Z,0.60
2018-07-16T13:15:48.506Z,0.85
2018-07-16T13:18:16.298Z,0.60
2018-07-16T13:20:44.041Z,0.72
2018-07-16T13:23:11.806Z,0.75
2018-07-16T13:25:39.546Z,0.70
2018-07-16T13:28:07.324Z,1.32
2018-07-16T13:30:35.114Z,1.00
2018-07-16T13:33:02.872Z,0.70
2018-07-16T13:35:30.610Z,0.80
2018-07-16T13:37:58.424Z,0.60
2018-07-16T13:40:26.226Z,1.10
2018-07-16T13:42:54.018Z,0.70
2018-07-16T13:45:21.803Z,0.90
2018-07-16T13:47:49.537Z,1.10
2018-07-16T13:50:17.331Z,0.85
2018-07-16T13:52:45.118Z,0.70
2018-07-16T13:55:12.855Z,0.80
2018-07-16T13:57:40.613Z,1.00
2018-07-16T14:00:08.423Z,0.75
2018-07-16T14:02:36.160Z,0.75
2018-07-16T14:05:04.019Z,1.10
2018-07-16T14:07:31.709Z,0.80
2018-07-16T14:09:59.485Z,0.70
2018-07-16T14:12:27.337Z,0.80
2018-07-16T14:14:55.019Z,0.70
2018-07-16T14:17:22.779Z,0.75
2018-07-16T14:19:50.528Z,0.80
2018-07-16T14:22:18.165Z,0.88
2018-07-16T14:24:46.532Z,0.98
2018-07-16T14:27:14.238Z,0.80
2018-07-16T14:29:42.007Z,1.02
2018-07-16T14:32:09.748Z,0.78
2018-07-16T14:34:37.506Z,1.17
2018-07-16T14:37:05.320Z,0.90
2018-07-16T14:39:33.147Z,0.80
2018-07-16T14:42:00.825Z,0.70
2018-07-16T14:44:28.620Z,0.72
2018-07-16T14:46:56.388Z,0.72
2018-07-16T14:49:24.112Z,0.68
2018-07-16T14:51:51.893Z,0.60
2018-07-16T14:54:19.668Z,0.80
2018-07-16T14:56:47.560Z,1.00
2018-07-16T14:59:15.292Z,0.85
2018-07-16T15:01:43.083Z,0.70
2018-07-16T15:04:10.829Z,0.90
2018-07-16T15:06:38.546Z,0.75
2018-07-16T15:09:08.133Z,0.82
2018-07-16T15:11:35.871Z,0.93
2018-07-16T15:14:03.672Z,0.78
2018-07-16T15:16:31.446Z,0.80
2018-07-16T15:18:59.166Z,0.90
2018-07-16T15:21:27.937Z,0.78
2018-07-16T15:23:55.480Z,0.80
2018-07-16T15:26:23.202Z,0.70
2018-07-16T15:28:50.941Z,0.70
2018-07-16T15:31:18.675Z,0.80
2018-07-16T15:33:46.429Z,0.95
2018-07-16T15:36:14.153Z,0.90
2018-07-16T15:38:41.950Z,0.82
2018-07-16T15:41:09.740Z,0.72
2018-07-16T15:43:37.584Z,0.80
2018-07-16T15:46:05.338Z,0.80
2018-07-16T15:48:33.154Z,0.70
2018-07-16T15:51:01.826Z,1.35
2018-07-16T15:53:29.715Z,0.80
2018-07-16T15:55:57.481Z,0.70
2018-07-16T15:58:25.199Z,1.00
2018-07-16T16:00:53.336Z,1.05
2018-07-16T16:03:21.156Z,0.80
2018-07-16T16:05:48.926Z,0.93
2018-07-16T16:08:17.847Z,0.80
2018-07-16T16:10:45.590Z,1.10
2018-07-16T16:13:13.401Z,0.75
2018-07-16T16:15:41.220Z,0.88
2018-07-16T16:18:08.972Z,0.80
2018-07-16T16:20:36.768Z,0.80
2018-07-16T16:23:04.957Z,0.68
2018-07-16T16:25:32.654Z,1.07
2018-07-16T16:28:00.404Z,1.00
2018-07-16T16:30:28.289Z,0.95
2018-07-16T16:32:56.180Z,0.80
2018-07-16T16:35:24.018Z,0.90
2018-07-16T16:37:51.850Z,0.90
2018-07-16T16:40:19.627Z,0.70
2018-07-16T16:42:47.424Z,0.80
2018-07-16T16:45:15.196Z,0.70
2018-07-16T16:47:42.980Z,0.80
2018-07-16T16:50:10.746Z,0.90
2018-07-16T16:52:38.558Z,0.60
2018-07-16T16:55:06.398Z,0.90
2018-07-16T16:57:34.158Z,0.90
2018-07-16T17:00:01.933Z,0.80
2018-07-16T17:02:29.646Z,0.98
2018-07-16T17:04:57.454Z,0.70
2018-07-16T17:07:25.174Z,0.62
2018-07-16T17:09:52.934Z,0.70
2018-07-16T17:12:20.698Z,0.72
2018-07-16T17:14:48.410Z,0.62
2018-07-16T17:17:16.927Z,0.90
2018-07-16T17:19:44.664Z,0.70
2018-07-16T17:22:12.479Z,0.80
2018-07-16T17:24:40.220Z,0.90
2018-07-16T17:27:08.010Z,0.70
2018-07-16T17:29:35.775Z,0.82
2018-07-16T17:32:04.331Z,0.90
2018-07-16T17:34:32.055Z,0.90
2018-07-16T17:36:59.805Z,0.80
2018-07-16T17:39:27.538Z,0.95
2018-07-16T17:41:55.260Z,0.57
2018-07-16T17:44:23.085Z,0.72
2018-07-16T17:46:50.761Z,0.78
2018-07-16T17:49:18.510Z,0.80
2018-07-16T17:51:46.308Z,1.00
2018-07-16T17:54:14.089Z,0.90
2018-07-16T17:56:42.174Z,0.88
2018-07-16T17:59:09.939Z,0.90
2018-07-16T18:01:37.774Z,0.90
2018-07-16T18:04:05.696Z,1.22
2018-07-16T18:06:33.429Z,1.10
2018-07-16T18:09:01.183Z,1.10
2018-07-16T18:11:28.936Z,0.90
2018-07-16T18:13:56.769Z,0.90
2018-07-16T18:16:24.503Z,0.75
2018-07-16T18:18:52.260Z,0.90
2018-07-16T18:21:20.034Z,1.00
2018-07-16T18:23:47.775Z,0.70
2018-07-16T18:26:15.530Z,0.85
2018-07-16T18:28:43.231Z,1.02
2018-07-16T18:31:11.016Z,0.88
2018-07-16T18:33:38.759Z,0.90
2018-07-16T18:36:06.592Z,0.88
2018-07-16T18:38:34.387Z,0.90
2018-07-16T18:41:02.208Z,0.90
2018-07-16T18:43:30.037Z,1.10
2018-07-16T18:45:58.268Z,0.68
2018-07-16T18:48:26.018Z,0.80
2018-07-16T18:50:53.774Z,0.87
2018-07-16T18:53:21.597Z,0.90
2018-07-16T18:55:49.391Z,0.98
2018-07-16T18:58:18.195Z,1.07
2018-07-16T19:00:45.896Z,1.35
2018-07-16T19:03:13.828Z,1.10
2018-07-16T19:05:41.618Z,1.00
2018-07-16T19:08:09.378Z,0.90
2018-07-16T19:10:37.241Z,0.80
2018-07-16T19:13:05.191Z,1.00
2018-07-16T19:15:32.948Z,1.20
2018-07-16T19:18:00.739Z,1.07
2018-07-16T19:20:28.622Z,0.80
2018-07-16T19:22:56.383Z,0.90
2018-07-16T19:25:24.272Z,1.10
2018-07-16T19:27:52.089Z,1.00
2018-07-16T19:30:19.902Z,0.80
2018-07-16T19:32:47.693Z,1.37
2018-07-16T19:35:15.710Z,1.10
2018-07-16T19:37:43.497Z,1.00
2018-07-16T19:40:11.278Z,1.00
2018-07-16T19:42:39.850Z,1.20
2018-07-16T19:45:07.708Z,1.47
2018-07-16T19:47:36.185Z,1.30
2018-07-16T19:50:04.510Z,1.30
2018-07-16T19:52:32.251Z,1.13
2018-07-16T19:55:00.055Z,1.00
2018-07-16T19:57:27.796Z,1.20
2018-07-16T19:59:55.448Z,1.47
2018-07-16T20:02:23.188Z,1.10
2018-07-16T20:04:50.945Z,1.20
2018-07-16T20:07:18.735Z,1.17
2018-07-16T20:09:46.555Z,1.40
2018-07-16T20:12:25.933Z,1.40
2018-07-16T20:14:53.765Z,1.73
2018-07-16T20:17:21.526Z,1.33
2018-07-16T20:19:49.266Z,1.43
2018-07-16T20:22:17.053Z,1.10
2018-07-16T20:24:45.153Z,1.57
2018-07-16T20:27:13.046Z,1.83
2018-07-16T20:29:40.776Z,1.77
2018-07-16T20:32:08.539Z,1.50
2018-07-16T20:34:36.302Z,1.67
2018-07-16T20:37:04.143Z,1.57
2018-07-16T20:39:31.942Z,1.60
2018-07-16T20:41:59.808Z,1.33
2018-07-16T20:44:27.690Z,1.30
2018-07-16T20:46:55.418Z,1.07
2018-07-16T20:49:23.078Z,1.40
2018-07-16T20:51:50.841Z,1.30
2018-07-16T20:54:18.475Z,1.37
2018-07-16T20:56:46.150Z,1.60
2018-07-16T20:59:13.815Z,1.50
2018-07-16T21:01:42.179Z,1.47
2018-07-16T21:04:09.928Z,1.60
2018-07-16T21:06:37.667Z,1.60
2018-07-16T21:09:06.963Z,1.57
2018-07-16T21:11:34.675Z,1.57
2018-07-16T21:14:02.372Z,1.50
2018-07-16T21:16:30.189Z,1.53
2018-07-16T21:18:57.835Z,1.60
2018-07-16T21:21:25.550Z,1.50
2018-07-16T21:23:53.253Z,1.60
2018-07-16T21:26:20.939Z,1.30
2018-07-16T21:28:48.693Z,1.90
2018-07-16T21:31:16.454Z,1.57
2018-07-16T21:33:44.147Z,1.90
2018-07-16T21:36:11.881Z,1.30
2018-07-16T21:38:39.667Z,1.67
2018-07-16T21:41:07.537Z,1.87
2018-07-16T21:43:35.264Z,1.90
2018-07-16T21:46:03.001Z,1.87
2018-07-16T21:48:30.777Z,1.90
2018-07-16T21:50:58.473Z,1.90
2018-07-16T21:53:26.936Z,2.00
2018-07-16T21:55:54.931Z,2.10
2018-07-16T21:58:22.690Z,1.90
2018-07-16T22:00:50.671Z,1.83
2018-07-16T22:03:18.367Z,1.70
2018-07-16T22:05:46.071Z,1.77
2018-07-16T22:08:13.813Z,1.90
2018-07-16T22:10:41.622Z,2.43
2018-07-16T22:13:09.354Z,2.20
2018-07-16T22:15:37.064Z,2.07
2018-07-16T22:18:04.957Z,2.23
2018-07-16T22:20:32.725Z,2.00
2018-07-16T22:23:00.533Z,1.80
2018-07-16T22:25:28.326Z,2.30
2018-07-16T22:27:56.904Z,1.87
2018-07-16T22:30:24.688Z,1.93
2018-07-16T22:32:52.386Z,2.40
2018-07-16T22:35:20.175Z,2.20
2018-07-16T22:37:48.003Z,2.20
2018-07-16T22:40:15.796Z,2.10
2018-07-16T22:42:43.550Z,2.10
2018-07-16T22:45:11.326Z,1.90
2018-07-16T22:47:39.089Z,1.97
2018-07-16T22:50:06.950Z,2.23
2018-07-16T22:52:34.711Z,1.97
2018-07-16T22:55:02.403Z,2.33
2018-07-16T22:57:30.129Z,2.10
2018-07-16T22:59:57.828Z,2.50
2018-07-16T23:02:25.509Z,2.40
2018-07-16T23:04:53.324Z,2.13
2018-07-16T23:07:21.048Z,1.90
2018-07-16T23:09:48.773Z,2.10
2018-07-16T23:12:16.576Z,2.07
2018-07-16T23:14:44.305Z,2.40
2018-07-16T23:17:12.139Z,2.10
2018-07-16T23:19:39.911Z,2.30
2018-07-16T23:22:07.597Z,2.30
2018-07-16T23:24:35.365Z,2.20
2018-07-16T23:27:03.105Z,2.30
2018-07-16T23:29:30.860Z,2.27
2018-07-16T23:31:58.681Z,2.60
2018-07-16T23:34:26.409Z,2.50
2018-07-16T23:36:54.136Z,2.43
2018-07-16T23:39:21.908Z,2.10
2018-07-16T23:41:49.551Z,1.83
2018-07-16T23:44:17.233Z,2.30
2018-07-16T23:46:45.016Z,2.13
2018-07-16T23:49:12.754Z,2.50
2018-07-16T23:51:40.498Z,2.53
2018-07-16T23:54:08.226Z,2.17
2018-07-16T23:56:35.979Z,2.00
2018-07-16T23:59:03.762Z,2.00
